createdAt,value
2022-10-25T00:01:21.032Z,100543.19
2022-10-25T00:03:47.919Z,100573.53
2022-10-25T00:06:16.389Z,100571.69
2022-10-25T00:08:42.982Z,100593.97
2022-10-25T00:11:20.344Z,100580.78
2022-10-25T00:13:49.895Z,100560.44
2022-10-25T00:16:18.619Z,100549.63
2022-10-25T00:18:45.316Z,100571.94
2022-10-25T00:21:11.764Z,100530.41
2022-10-25T00:23:38.230Z,100552.97
2022-10-25T00:26:06.617Z,100509.22
2022-10-25T00:28:33.221Z,100566.38
2022-10-25T00:31:05.439Z,100596.09
2022-10-25T00:33:34.743Z,100584.19
2022-10-25T00:36:05.306Z,100590.19
2022-10-25T00:38:31.755Z,100573.06
2022-10-25T00:40:58.492Z,100580.53
2022-10-25T00:43:34.972Z,100596.22
2022-10-25T00:46:05.434Z,100565.56
2022-10-25T00:48:32.370Z,100546.09
2022-10-25T00:50:58.914Z,100530.69
2022-10-25T00:53:35.263Z,100595.75
2022-10-25T00:56:19.117Z,100587.09
2022-10-25T00:58:50.807Z,100537.53
2022-10-25T01:01:17.898Z,100588.25
2022-10-25T01:03:46.791Z,100609.69
2022-10-25T01:06:23.051Z,100583.91
2022-10-25T01:08:51.792Z,100597.72
2022-10-25T01:11:19.626Z,100616.50
2022-10-25T01:13:46.599Z,100576.25
2022-10-25T01:16:25.278Z,100615.72
2022-10-25T01:19:23.914Z,100507.28
2022-10-25T01:22:04.227Z,100619.75
2022-10-25T01:25:08.150Z,100627.13
2022-10-25T01:28:05.693Z,100631.41
2022-10-25T01:30:56.963Z,100628.53
2022-10-25T01:33:32.197Z,100627.06
2022-10-25T01:36:20.748Z,100567.56
2022-10-25T01:39:18.840Z,100606.50
2022-10-25T01:41:54.319Z,100624.38
2022-10-25T01:44:30.346Z,100629.16
2022-10-25T01:47:06.124Z,100596.97
2022-10-25T01:49:44.760Z,100591.44
2022-10-25T01:52:11.295Z,100591.31
2022-10-25T01:54:37.761Z,100601.75
2022-10-25T01:57:21.038Z,100627.72
2022-10-25T02:00:10.535Z,100628.44
2022-10-25T02:02:50.194Z,100625.88
2022-10-25T02:05:23.736Z,100630.28
2022-10-25T02:08:00.014Z,100623.53
2022-10-25T02:10:37.868Z,100632.00
2022-10-25T02:13:25.298Z,100625.88
2022-10-25T02:16:04.230Z,100630.19
2022-10-25T02:18:35.760Z,100637.72
2022-10-25T02:21:03.726Z,100635.56
2022-10-25T02:23:33.967Z,100598.56
2022-10-25T02:26:01.151Z,100591.81
2022-10-25T02:28:28.932Z,100610.56
2022-10-25T02:30:56.863Z,100584.81
2022-10-25T02:33:23.380Z,100630.63
2022-10-25T02:36:12.116Z,100641.72
2022-10-25T02:38:39.266Z,100637.59
2022-10-25T02:41:06.130Z,100558.59
2022-10-25T02:43:32.772Z,100640.84
2022-10-25T02:45:59.817Z,100659.25
2022-10-25T02:48:26.525Z,100621.47
2022-10-25T02:50:52.994Z,100564.31
2022-10-25T02:53:19.407Z,100563.47
2022-10-25T02:55:45.834Z,100661.22
2022-10-25T02:58:12.285Z,100641.53
2022-10-25T03:00:38.635Z,100609.97
2022-10-25T03:03:04.999Z,100636.25
2022-10-25T03:05:31.294Z,100628.47
2022-10-25T03:07:57.623Z,100625.59
2022-10-25T03:10:24.045Z,100639.25
2022-10-25T03:12:50.371Z,100642.19
2022-10-25T03:15:16.777Z,100644.41
2022-10-25T03:17:43.083Z,100633.84
2022-10-25T03:20:09.699Z,100663.41
2022-10-25T03:22:36.018Z,100626.88
2022-10-25T03:25:02.420Z,100664.53
2022-10-25T03:27:28.786Z,100637.19
2022-10-25T03:29:55.255Z,100655.31
2022-10-25T03:32:21.584Z,100672.13
2022-10-25T03:34:47.969Z,100658.69
2022-10-25T03:37:14.340Z,100650.13
2022-10-25T03:39:40.756Z,100643.69
2022-10-25T03:42:07.182Z,100641.72
2022-10-25T03:44:33.502Z,100577.47
2022-10-25T03:46:59.809Z,100658.97
2022-10-25T03:49:26.553Z,100677.84
2022-10-25T03:51:57.032Z,100684.53
2022-10-25T03:54:28.363Z,100677.16
2022-10-25T03:56:55.734Z,100678.19
2022-10-25T03:59:22.033Z,100672.59
2022-10-25T04:01:48.933Z,100674.06
2022-10-25T04:04:15.346Z,100682.53
2022-10-25T04:06:41.646Z,100645.03
2022-10-25T04:09:08.296Z,100688.19
2022-10-25T04:11:34.638Z,100662.56
2022-10-25T04:14:00.989Z,100693.66
2022-10-25T04:16:27.329Z,100670.41
2022-10-25T04:18:53.966Z,100711.59
2022-10-25T04:21:21.317Z,100687.06
2022-10-25T04:23:49.282Z,100718.34
2022-10-25T04:26:18.537Z,100685.97
2022-10-25T04:28:49.961Z,100729.13
2022-10-25T04:31:16.725Z,100729.25
2022-10-25T04:33:46.508Z,100709.03
2022-10-25T04:36:15.349Z,100700.94
2022-10-25T04:38:41.891Z,100694.94
2022-10-25T04:41:09.993Z,100629.09
2022-10-25T04:43:36.902Z,100634.66
2022-10-25T04:46:03.670Z,100702.03
2022-10-25T04:48:30.038Z,100655.06
2022-10-25T04:50:59.758Z,100726.47
2022-10-25T04:53:26.170Z,100697.88
2022-10-25T04:56:01.032Z,100641.88
2022-10-25T04:58:31.279Z,100731.97
2022-10-25T05:01:04.722Z,100694.69
2022-10-25T05:03:31.683Z,100693.34
2022-10-25T05:06:06.447Z,100708.31
2022-10-25T05:08:33.057Z,100704.47
2022-10-25T05:10:59.388Z,100713.50
2022-10-25T05:13:25.724Z,100697.25
2022-10-25T05:15:56.021Z,100707.75
2022-10-25T05:18:22.501Z,100697.25
2022-10-25T05:20:56.805Z,100733.56
2022-10-25T05:23:23.509Z,100751.31
2022-10-25T05:26:04.171Z,100737.00
2022-10-25T05:28:30.946Z,100653.44
2022-10-25T05:30:57.318Z,100741.88
2022-10-25T05:33:23.896Z,100733.06
2022-10-25T05:35:50.286Z,100749.16
2022-10-25T05:38:16.626Z,100677.75
2022-10-25T05:40:43.056Z,100731.56
2022-10-25T05:43:41.544Z,100766.31
2022-10-25T05:46:12.489Z,100736.09
2022-10-25T05:48:42.338Z,100737.94
2022-10-25T05:54:14.760Z,100756.97
2022-10-25T05:56:42.320Z,100775.78
2022-10-25T05:59:11.109Z,100728.66
2022-10-25T06:01:40.381Z,100780.78
2022-10-25T06:04:07.543Z,100759.41
2022-10-25T06:06:35.100Z,100771.41
2022-10-25T06:09:02.326Z,100779.06
2022-10-25T06:11:29.582Z,100743.41
2022-10-25T06:13:56.233Z,100714.06
2022-10-25T06:16:23.876Z,100756.38
2022-10-25T06:18:50.534Z,100770.59
2022-10-25T06:21:28.598Z,100789.53
2022-10-25T06:23:56.065Z,100725.75
2022-10-25T06:26:25.265Z,100778.38
2022-10-25T06:28:54.100Z,100809.78
2022-10-25T06:31:21.249Z,100803.53
2022-10-25T06:33:48.336Z,100763.81
2022-10-25T06:36:17.695Z,100824.34
2022-10-25T06:38:45.101Z,100822.63
2022-10-25T06:41:13.694Z,100789.19
2022-10-25T06:43:40.143Z,100810.88
2022-10-25T06:46:11.390Z,100824.97
2022-10-25T06:48:38.137Z,100836.25
2022-10-25T06:51:06.541Z,100823.53
2022-10-25T06:53:33.204Z,100836.03
2022-10-25T06:56:04.984Z,100820.31
2022-10-25T06:58:33.628Z,100856.69
2022-10-25T07:01:04.344Z,100772.41
2022-10-25T07:03:35.189Z,100858.78
2022-10-25T07:06:13.935Z,100836.69
2022-10-25T07:08:42.952Z,100742.00
2022-10-25T07:11:16.827Z,100842.34
2022-10-25T07:13:44.491Z,100872.16
2022-10-25T07:16:13.224Z,100854.84
2022-10-25T07:18:39.789Z,100873.41
2022-10-25T07:21:12.635Z,100875.00
2022-10-25T07:23:42.477Z,100852.72
2022-10-25T07:26:14.399Z,100876.84
2022-10-25T07:28:42.450Z,100843.31
2022-10-25T07:31:13.052Z,100864.03
2022-10-25T07:33:39.740Z,100889.00
2022-10-25T07:36:10.783Z,100797.97
2022-10-25T07:38:38.074Z,100846.91
2022-10-25T07:41:04.529Z,100857.56
2022-10-25T07:43:30.944Z,100902.56
2022-10-25T07:45:57.270Z,100876.63
2022-10-25T07:48:23.681Z,100860.47
2022-10-25T07:50:50.726Z,100878.72
2022-10-25T07:53:17.465Z,100895.09
2022-10-25T07:55:49.098Z,100859.28
2022-10-25T07:58:15.473Z,100892.59
2022-10-25T08:00:41.794Z,100874.59
2022-10-25T08:03:08.236Z,100891.06
2022-10-25T08:05:34.640Z,100880.38
2022-10-25T08:08:01.026Z,100875.59
2022-10-25T08:10:27.367Z,100834.47
2022-10-25T08:12:55.851Z,100888.63
2022-10-25T08:15:22.682Z,100869.81
2022-10-25T08:17:56.539Z,100891.50
2022-10-25T08:20:29.247Z,100825.50
2022-10-25T08:23:09.153Z,100854.81
2022-10-25T08:25:35.499Z,100815.63
2022-10-25T08:28:01.823Z,100853.72
2022-10-25T08:30:28.377Z,100777.66
2022-10-25T08:32:57.324Z,100916.13
2022-10-25T08:35:25.031Z,100876.69
2022-10-25T08:37:51.713Z,100912.66
2022-10-25T08:40:40.156Z,100911.88
2022-10-25T08:43:28.415Z,100907.75
2022-10-25T08:45:59.914Z,100904.63
2022-10-25T08:48:32.650Z,100877.53
2022-10-25T08:51:14.075Z,100893.16
2022-10-25T08:53:48.411Z,100885.19
2022-10-25T08:56:18.297Z,100870.56
2022-10-25T08:58:54.072Z,100925.72
2022-10-25T09:01:40.639Z,100900.03
2022-10-25T09:04:07.162Z,100930.84
2022-10-25T09:06:41.172Z,100943.84
2022-10-25T09:09:33.420Z,100936.88
2022-10-25T09:11:59.705Z,100941.91
2022-10-25T09:14:50.663Z,100940.44
2022-10-25T09:17:22.302Z,100946.91
2022-10-25T09:19:54.695Z,100950.75
2022-10-25T09:22:28.172Z,100916.00
2022-10-25T09:25:02.794Z,100933.56
2022-10-25T09:27:38.773Z,100970.84
2022-10-25T09:30:10.999Z,100928.81
2022-10-25T09:32:45.644Z,100968.16
2022-10-25T09:35:27.326Z,100937.69
2022-10-25T09:38:19.354Z,100947.41
2022-10-25T09:41:01.169Z,100945.09
2022-10-25T09:43:39.426Z,100944.78
2022-10-25T09:46:13.682Z,100974.63
2022-10-25T09:48:47.759Z,100936.09
2022-10-25T09:51:24.705Z,100973.94
2022-10-25T09:53:52.974Z,100975.84
2022-10-25T09:56:19.303Z,100954.88
2022-10-25T09:58:48.959Z,100992.06
2022-10-25T10:01:38.200Z,100874.41
2022-10-25T10:04:23.630Z,100933.59
2022-10-25T10:06:52.090Z,100938.94
2022-10-25T10:09:18.475Z,100977.56
2022-10-25T10:11:48.000Z,100979.56
2022-10-25T10:14:47.982Z,100992.78
2022-10-25T10:17:18.191Z,100994.63
2022-10-25T10:19:44.521Z,100977.41
2022-10-25T10:22:16.579Z,100987.09
2022-10-25T10:24:46.495Z,100971.19
2022-10-25T10:27:22.049Z,100993.56
2022-10-25T10:29:58.761Z,100918.38
2022-10-25T10:32:36.883Z,100975.06
2022-10-25T10:35:24.156Z,100989.00
2022-10-25T10:37:50.488Z,100994.63
2022-10-25T10:40:16.732Z,100990.19
2022-10-25T10:42:43.266Z,100964.41
2022-10-25T10:45:15.956Z,100978.22
2022-10-25T10:47:51.384Z,101009.25
2022-10-25T10:50:20.935Z,101009.78
2022-10-25T10:52:58.157Z,101001.97
2022-10-25T10:55:37.924Z,100993.63
2022-10-25T10:58:15.962Z,100956.66
2022-10-25T11:01:33.500Z,100990.50
2022-10-25T11:04:01.371Z,100988.00
2022-10-25T11:06:33.374Z,100984.56
2022-10-25T11:09:20.196Z,100991.56
2022-10-25T11:12:06.356Z,100979.22
2022-10-25T11:14:32.981Z,100960.63
2022-10-25T11:17:36.870Z,100937.44
2022-10-25T11:20:30.906Z,100962.09
2022-10-25T11:23:13.673Z,100968.78
2022-10-25T11:26:02.120Z,100966.56
2022-10-25T11:28:44.866Z,100947.78
2022-10-25T11:31:39.465Z,100962.09
2022-10-25T11:34:27.155Z,100985.53
2022-10-25T11:37:18.731Z,100979.84
2022-10-25T11:40:07.832Z,100992.03
2022-10-25T11:42:55.764Z,100946.91
2022-10-25T11:45:42.959Z,100992.38
2022-10-25T11:48:40.383Z,100984.81
2022-10-25T11:51:22.616Z,100971.88
2022-10-25T11:54:17.222Z,100967.47
2022-10-25T11:57:18.511Z,100961.53
2022-10-25T12:00:02.807Z,100986.31
2022-10-25T12:03:15.289Z,100923.38
2022-10-25T12:06:15.318Z,100979.19
2022-10-25T12:08:58.749Z,100931.34
2022-10-25T12:11:33.648Z,100985.34
2022-10-25T12:14:05.590Z,100971.19
2022-10-25T12:16:35.438Z,100986.03
2022-10-25T12:19:13.444Z,100963.22
2022-10-25T12:21:53.423Z,100964.66
2022-10-25T12:24:24.462Z,100987.94
2022-10-25T12:26:54.598Z,100957.91
2022-10-25T12:29:33.701Z,100983.28
2022-10-25T12:32:03.105Z,100988.13
2022-10-25T12:34:42.995Z,100989.09
2022-10-25T12:37:24.818Z,100976.28
2022-10-25T12:39:53.243Z,100978.00
2022-10-25T12:42:52.063Z,100983.00
2022-10-25T12:45:44.437Z,100980.81
2022-10-25T12:48:32.610Z,100975.38
2022-10-25T12:51:13.025Z,100978.41
2022-10-25T12:54:07.216Z,100980.59
2022-10-25T12:56:52.046Z,100977.34
2022-10-25T13:00:00.159Z,100969.22
2022-10-25T13:02:45.494Z,100964.41
2022-10-25T13:05:49.772Z,100975.16
2022-10-25T13:08:22.199Z,100961.81
2022-10-25T13:11:01.540Z,100956.50
2022-10-25T13:13:33.952Z,100957.06
2022-10-25T13:16:04.604Z,100968.47
2022-10-25T13:18:33.907Z,100970.81
2022-10-25T13:21:02.854Z,100976.44
2022-10-25T13:23:53.770Z,100977.84
2022-10-25T13:26:25.562Z,100929.25
2022-10-25T13:28:57.424Z,100974.44
2022-10-25T13:31:35.911Z,100981.44
2022-10-25T13:34:14.418Z,100976.25
2022-10-25T13:36:51.431Z,100974.78
2022-10-25T13:39:31.976Z,100983.81
2022-10-25T13:42:16.596Z,100982.59
2022-10-25T13:45:07.995Z,100949.06
2022-10-25T13:47:46.690Z,100954.63
2022-10-25T13:53:11.763Z,100985.53
2022-10-25T13:55:45.500Z,100935.88
2022-10-25T13:58:51.448Z,100961.41
2022-10-25T14:01:18.108Z,100978.09
2022-10-25T14:03:50.814Z,100979.41
2022-10-25T14:06:37.419Z,100959.72
2022-10-25T14:09:29.449Z,100976.34
2022-10-25T14:12:13.721Z,100952.00
2022-10-25T14:14:49.848Z,100976.72
2022-10-25T14:20:08.527Z,100958.31
2022-10-25T14:22:43.450Z,100965.03
2022-10-25T14:25:32.047Z,100972.72
2022-10-25T14:28:07.483Z,100962.38
2022-10-25T14:30:39.133Z,100975.28
2022-10-25T14:33:20.034Z,100958.69
2022-10-25T14:35:48.736Z,100954.47
2022-10-25T14:38:18.919Z,100923.38
2022-10-25T14:40:56.925Z,100940.25
2022-10-25T14:43:30.378Z,100967.31
2022-10-25T14:46:05.745Z,100975.41
2022-10-25T14:48:33.323Z,100939.13
2022-10-25T14:51:06.112Z,100935.72
2022-10-25T14:53:33.245Z,100966.66
2022-10-25T14:56:02.230Z,100956.28
2022-10-25T14:58:38.967Z,100936.31
2022-10-25T15:01:05.493Z,100944.75
2022-10-25T15:03:33.143Z,100942.69
2022-10-25T15:05:59.943Z,100924.00
2022-10-25T15:08:28.568Z,100934.78
2022-10-25T15:10:57.865Z,100920.91
2022-10-25T15:13:39.801Z,100928.72
2022-10-25T15:16:24.935Z,100952.25
2022-10-25T15:19:06.510Z,100932.00
2022-10-25T15:21:50.949Z,100955.91
2022-10-25T15:24:23.117Z,100934.63
2022-10-25T15:27:00.796Z,100915.63
2022-10-25T15:29:42.569Z,100947.09
2022-10-25T15:32:19.794Z,100941.91
2022-10-25T15:35:00.730Z,100937.69
2022-10-25T15:37:28.359Z,100918.13
2022-10-25T15:39:56.088Z,100937.22
2022-10-25T15:42:24.528Z,100919.91
2022-10-25T15:44:50.941Z,100896.25
2022-10-25T15:47:30.619Z,100858.63
2022-10-25T15:49:57.651Z,100893.59
2022-10-25T15:52:24.180Z,100873.47
2022-10-25T15:54:50.616Z,100814.06
2022-10-25T15:57:17.834Z,100808.13
2022-10-25T15:59:44.421Z,100864.59
2022-10-25T16:02:17.724Z,100920.75
2022-10-25T16:04:44.258Z,100894.03
2022-10-25T16:07:14.125Z,100883.53
2022-10-25T16:09:40.515Z,100902.91
2022-10-25T16:12:09.096Z,100909.94
2022-10-25T16:14:36.528Z,100905.13
2022-10-25T16:17:03.133Z,100898.25
2022-10-25T16:19:31.500Z,100916.03
2022-10-25T16:21:58.790Z,100903.69
2022-10-25T16:24:25.187Z,100909.84
2022-10-25T16:26:52.589Z,100875.88
2022-10-25T16:29:25.353Z,100888.44
2022-10-25T16:31:52.558Z,100935.19
2022-10-25T16:34:19.586Z,100914.00
2022-10-25T16:36:47.335Z,100920.13
2022-10-25T16:39:13.976Z,100907.69
2022-10-25T16:41:42.675Z,100874.34
2022-10-25T16:44:11.861Z,100907.13
2022-10-25T16:46:39.100Z,100926.31
2022-10-25T16:49:05.822Z,100898.31
2022-10-25T16:51:34.641Z,100864.91
2022-10-25T16:54:01.414Z,100891.16
2022-10-25T16:56:28.015Z,100883.81
2022-10-25T16:58:54.507Z,100924.63
2022-10-25T17:01:35.399Z,100923.25
2022-10-25T17:04:04.221Z,100909.47
2022-10-25T17:06:45.945Z,100888.28
2022-10-25T17:09:12.407Z,100882.94
2022-10-25T17:11:38.755Z,100882.00
2022-10-25T17:14:05.755Z,100909.47
2022-10-25T17:16:32.236Z,100910.50
2022-10-25T17:18:58.634Z,100893.44
2022-10-25T17:21:25.036Z,100885.19
2022-10-25T17:23:51.358Z,100861.47
2022-10-25T17:26:17.747Z,100838.03
2022-10-25T17:28:44.508Z,100884.41
2022-10-25T17:31:13.386Z,100844.91
2022-10-25T17:33:40.549Z,100884.66
2022-10-25T17:36:15.583Z,100900.13
2022-10-25T17:38:42.389Z,100889.16
2022-10-25T17:41:09.224Z,100843.66
2022-10-25T17:43:37.109Z,100848.69
2022-10-25T17:46:09.521Z,100893.00
2022-10-25T17:48:35.965Z,100873.97
2022-10-25T17:51:10.542Z,100857.03
2022-10-25T17:53:37.394Z,100889.69
2022-10-25T17:56:16.078Z,100868.31
2022-10-25T17:58:44.257Z,100872.88
2022-10-25T18:01:12.299Z,100885.91
2022-10-25T18:03:39.270Z,100867.41
2022-10-25T18:06:08.939Z,100892.28
2022-10-25T18:08:38.669Z,100874.50
2022-10-25T18:11:13.010Z,100868.69
2022-10-25T18:13:40.666Z,100885.78
2022-10-25T18:16:10.880Z,100875.19
2022-10-25T18:18:38.067Z,100894.16
2022-10-25T18:21:13.284Z,100887.03
2022-10-25T18:23:40.589Z,100900.91
2022-10-25T18:26:08.693Z,100893.25
2022-10-25T18:28:36.013Z,100866.19
2022-10-25T18:31:04.946Z,100896.94
2022-10-25T18:33:36.730Z,100901.25
2022-10-25T18:36:15.763Z,100874.66
2022-10-25T18:38:42.196Z,100865.63
2022-10-25T18:41:10.684Z,100865.63
2022-10-25T18:43:37.131Z,100881.84
2022-10-25T18:46:03.678Z,100883.50
2022-10-25T18:48:30.214Z,100874.34
2022-10-25T18:50:56.667Z,100780.34
2022-10-25T18:53:23.233Z,100813.22
2022-10-25T18:55:52.965Z,100872.59
2022-10-25T18:58:19.667Z,100873.06
2022-10-25T19:00:46.934Z,100849.59
2022-10-25T19:03:19.939Z,100881.97
2022-10-25T19:05:55.240Z,100874.25
2022-10-25T19:08:21.604Z,100849.41
2022-10-25T19:10:50.116Z,100867.94
2022-10-25T19:13:19.661Z,100850.69
2022-10-25T19:15:46.567Z,100820.94
2022-10-25T19:18:16.638Z,100844.84
2022-10-25T19:20:46.267Z,100857.69
2022-10-25T19:23:13.035Z,100816.38
2022-10-25T19:25:39.432Z,100843.13
2022-10-25T19:28:05.781Z,100856.31
2022-10-25T19:30:35.460Z,100866.50
2022-10-25T19:33:04.421Z,100863.88
2022-10-25T19:35:30.869Z,100817.50
2022-10-25T19:37:57.275Z,100862.28
2022-10-25T19:40:23.657Z,100820.31
2022-10-25T19:42:50.135Z,100790.94
2022-10-25T19:45:16.508Z,100843.59
2022-10-25T19:47:43.766Z,100833.16
2022-10-25T19:50:10.308Z,100835.94
2022-10-25T19:52:37.968Z,100857.34
2022-10-25T19:55:06.212Z,100848.63
2022-10-25T19:57:33.200Z,100832.47
2022-10-25T19:59:59.628Z,100803.31
2022-10-25T20:02:26.130Z,100833.28
2022-10-25T20:04:52.697Z,100821.13
2022-10-25T20:07:19.443Z,100783.41
2022-10-25T20:09:45.817Z,100833.28
2022-10-25T20:12:12.151Z,100780.66
2022-10-25T20:14:38.538Z,100797.03
2022-10-25T20:17:06.042Z,100823.22
2022-10-25T20:19:32.494Z,100805.09
2022-10-25T20:21:59.043Z,100818.28
2022-10-25T20:24:25.500Z,100830.34
2022-10-25T20:26:53.124Z,100821.00
2022-10-25T20:29:24.018Z,100818.16
2022-10-25T20:31:51.715Z,100822.41
2022-10-25T20:34:19.498Z,100830.13
2022-10-25T20:36:46.898Z,100784.56
2022-10-25T20:39:13.761Z,100771.91
2022-10-25T20:41:40.154Z,100790.22
2022-10-25T20:44:08.755Z,100800.59
2022-10-25T20:46:35.626Z,100819.72
2022-10-25T20:49:03.247Z,100811.47
2022-10-25T20:51:29.566Z,100801.13
2022-10-25T20:53:56.914Z,100819.03
2022-10-25T20:56:24.036Z,100782.19
2022-10-25T20:58:50.728Z,100801.22
2022-10-25T21:01:17.487Z,100799.72
2022-10-25T21:03:43.990Z,100785.25
2022-10-25T21:06:14.177Z,100812.06
2022-10-25T21:08:40.533Z,100748.53
2022-10-25T21:11:09.848Z,100807.88
2022-10-25T21:13:37.182Z,100806.91
2022-10-25T21:16:07.287Z,100769.28
2022-10-25T21:18:33.757Z,100767.56
2022-10-25T21:21:02.266Z,100787.53
2022-10-25T21:23:28.683Z,100792.91
2022-10-25T21:26:03.285Z,100792.78
2022-10-25T21:28:38.030Z,100770.09
2022-10-25T21:31:10.712Z,100782.84
2022-10-25T21:33:37.271Z,100769.38
2022-10-25T21:36:09.242Z,100781.13
2022-10-25T21:38:35.845Z,100788.22
2022-10-25T21:41:08.192Z,100798.75
2022-10-25T21:43:34.698Z,100763.31
2022-10-25T21:46:04.397Z,100721.03
2022-10-25T21:48:30.693Z,100764.84
2022-10-25T21:50:58.811Z,100781.22
2022-10-25T21:53:25.643Z,100780.53
2022-10-25T21:56:02.176Z,100789.25
2022-10-25T21:58:28.479Z,100780.00
2022-10-25T22:00:54.806Z,100771.50
2022-10-25T22:03:23.078Z,100793.78
2022-10-25T22:05:51.917Z,100806.38
2022-10-25T22:08:21.724Z,100786.50
2022-10-25T22:11:05.057Z,100764.41
2022-10-25T22:13:32.007Z,100735.88
2022-10-25T22:16:04.598Z,100777.41
2022-10-25T22:18:31.271Z,100798.00
2022-10-25T22:21:00.689Z,100785.34
2022-10-25T22:23:29.406Z,100793.00
2022-10-25T22:26:00.229Z,100770.81
2022-10-25T22:28:27.001Z,100787.97
2022-10-25T22:31:01.910Z,100764.03
2022-10-25T22:33:29.373Z,100746.41
2022-10-25T22:36:00.754Z,100786.84
2022-10-25T22:38:28.085Z,100767.25
2022-10-25T22:40:58.754Z,100742.75
2022-10-25T22:43:25.578Z,100753.41
2022-10-25T22:45:52.105Z,100772.78
2022-10-25T22:48:18.446Z,100746.53
2022-10-25T22:50:53.596Z,100762.34
2022-10-25T22:53:21.693Z,100732.31
2022-10-25T22:56:00.498Z,100770.03
2022-10-25T22:58:28.489Z,100773.69
2022-10-25T23:03:45.490Z,100748.44
2022-10-25T23:06:14.629Z,100732.91
2022-10-25T23:08:41.631Z,100743.22
2022-10-25T23:11:13.109Z,100754.09
2022-10-25T23:13:39.431Z,100757.66
2022-10-25T23:16:06.514Z,100752.50
2022-10-25T23:18:33.390Z,100747.44
2022-10-25T23:21:01.953Z,100745.63
2022-10-25T23:23:34.159Z,100705.03
2022-10-25T23:26:00.732Z,100702.09
2022-10-25T23:28:29.925Z,100732.03
2022-10-25T23:30:56.530Z,100749.16
2022-10-25T23:33:22.860Z,100720.13
2022-10-25T23:35:49.184Z,100704.69
2022-10-25T23:38:15.509Z,100693.16
2022-10-25T23:40:46.735Z,100741.25
2022-10-25T23:43:13.139Z,100718.88
2022-10-25T23:45:41.825Z,100722.09
2022-10-25T23:48:08.166Z,100714.00
2022-10-25T23:50:34.479Z,100684.56
2022-10-25T23:53:00.803Z,100715.63
2022-10-25T23:55:27.388Z,100633.13
2022-10-25T23:57:57.869Z,100748.25
